This is the latest recevied weather packets stored in our database for station/object OK1PMP-6. If no packets are shown the sender has not sent any weather packets the latest 10 day(s).
| Time | Temp. | Humidity | Pressure | Rain* | Wind** | Luminosity | Snow |
|---|---|---|---|---|---|---|---|
| 1778085281 | 14.44° C | 81% | 1008.6 hPa | 0.76 mm | - | 8 W/m² | - |
| 1778084376 | 16.11° C | 67% | 1007.9 hPa | 0.51 mm | - | 4 W/m² | - |
| 1778083477 | 18.33° C | 55% | 1007.8 hPa | 0 mm | - | 4 W/m² | - |
| 1778082577 | 19.44° C | 54% | 1007.9 hPa | 0 mm | - | 6 W/m² | - |
| 1778081678 | 20° C | 54% | 1007.6 hPa | 0 mm | - | 56 W/m² | - |
| 1778080778 | 20.56° C | 55% | 1007.6 hPa | 0 mm | - | 91 W/m² | - |
| 1778079851 | 20.56° C | 52% | 1007.8 hPa | 0 mm | - | 150 W/m² | - |
| 1778078943 | 21.11° C | 50% | 1008 hPa | 0 mm | - | 143 W/m² | - |
| 1778078042 | 21.67° C | 48% | 1008.3 hPa | 0 mm | - | 125 W/m² | - |
| 1778077142 | 22.78° C | 47% | 1008.5 hPa | 0 mm | - | 151 W/m² | - |
| 1778076242 | 22.78° C | 46% | 1008.5 hPa | 0 mm | - | 260 W/m² | - |
| 1778075344 | 23.33° C | 47% | 1008.7 hPa | 0 mm | - | 276 W/m² | - |
| 1778074448 | 23.89° C | 46% | 1008.8 hPa | 0 mm | - | 385 W/m² | - |
| 1778073542 | 23.89° C | 46% | 1008.9 hPa | 0 mm | - | 568 W/m² | - |
| 1778072633 | 23.89° C | 47% | 1009.1 hPa | 0 mm | - | 525 W/m² | - |
| 1778071739 | 23.33° C | 48% | 1009.4 hPa | 0 mm | - | 612 W/m² | - |
| 1778070833 | 23.33° C | 47% | 1009.5 hPa | 0 mm | - | 650 W/m² | - |
| 1778069933 | 22.78° C | 51% | 1010.1 hPa | 0 mm | - | 178 W/m² | - |
| 1778069034 | 21.67° C | 53% | 1010.2 hPa | 0 mm | - | 633 W/m² | - |
| 1778068128 | 20.56° C | 54% | 1010.2 hPa | 0 mm | - | 195 W/m² | - |
| 1778067229 | 22.22° C | 52% | 1010.2 hPa | 0 mm | - | 585 W/m² | - |
| 1778066329 | 21.11° C | 53% | 1010 hPa | 0 mm | - | 765 W/m² | - |
| 1778065428 | 21.11° C | 54% | 1010.5 hPa | 0 mm | - | 606 W/m² | - |
| 1778064528 | 21.11° C | 56% | 1010.4 hPa | 0 mm | - | 851 W/m² | - |
| 1778063629 | 20° C | 59% | 1010.3 hPa | 0 mm | - | 433 W/m² | - |
* Rain latest hour (hover to see other rain measurements)
** Current wind speed in m/s (hover to see current wind gust speed)